Farelly Lake, Arkansas
Current Conditions -  °F | °C
As of 11:55 PM on Thursday 30 Oct 2014 (Local Time) from KSGT Reporting Station
Few Clouds Few Clouds  
Wind Chill: 55°   Ceiling: Unl
Heat Index: 55°   Visibility: 10mi
Dew Point: 48°   Wind: 9mph
Humidity: 77%   Direction: 270°W
Pressure: 30.03"   Gusts: NA
Location:  34.3615°N, 91.5213°W
Report Text: KSGT 310455Z AUTO 27008KT 10SM FEW075 13/09 A3003 RMK AO1
Loading
Personal Weather Stations






























Interactive Weather Map
Tropical Storm Tracking
New forecast layout! Learn more

10-Day Weather Forecast

Advertisements
Track Severe Weather on mobile